createdAt,value
2023-05-13T00:02:26.695Z,4.70
2023-05-13T00:04:53.859Z,5.20
2023-05-13T00:07:21.199Z,5.03
2023-05-13T00:09:48.272Z,4.77
2023-05-13T00:12:15.420Z,5.53
2023-05-13T00:14:42.505Z,3.77
2023-05-13T00:17:09.650Z,4.03
2023-05-13T00:19:36.713Z,4.33
2023-05-13T00:22:04.091Z,4.50
2023-05-13T00:24:31.228Z,3.73
2023-05-13T00:26:58.280Z,3.80
2023-05-13T00:29:25.354Z,3.80
2023-05-13T00:31:52.698Z,4.20
2023-05-13T00:34:19.842Z,4.23
2023-05-13T00:36:46.996Z,4.07
2023-05-13T00:39:14.060Z,3.50
2023-05-13T00:41:41.425Z,3.80
2023-05-13T00:44:08.534Z,3.90
2023-05-13T00:46:35.927Z,3.83
2023-05-13T00:49:04.671Z,4.30
2023-05-13T00:51:32.787Z,4.50
2023-05-13T00:54:00.402Z,4.17
2023-05-13T00:56:27.934Z,3.70
2023-05-13T00:58:55.015Z,4.10
2023-05-13T01:01:45.426Z,3.67
2023-05-13T01:04:37.870Z,3.80
2023-05-13T01:07:43.234Z,3.90
2023-05-13T01:10:47.684Z,4.70
2023-05-13T01:13:24.860Z,4.60
2023-05-13T01:16:13.690Z,4.57
2023-05-13T01:18:45.188Z,4.63
2023-05-13T01:21:12.791Z,4.57
2023-05-13T01:23:39.860Z,4.47
2023-05-13T01:26:07.085Z,4.27
2023-05-13T01:28:35.272Z,4.00
2023-05-13T01:31:03.752Z,3.97
2023-05-13T01:33:32.076Z,5.37
2023-05-13T01:35:59.527Z,5.70
2023-05-13T01:38:28.625Z,5.10
2023-05-13T01:40:59.207Z,4.37
2023-05-13T01:43:28.055Z,4.40
2023-05-13T01:45:55.551Z,4.90
2023-05-13T01:48:24.140Z,4.47
2023-05-13T01:50:52.703Z,4.67
2023-05-13T01:53:20.195Z,5.23
2023-05-13T01:55:49.352Z,4.10
2023-05-13T01:58:16.433Z,4.30
2023-05-13T02:00:43.518Z,4.27
2023-05-13T02:03:11.841Z,4.13
2023-05-13T02:05:38.911Z,4.87
2023-05-13T02:08:08.317Z,4.10
2023-05-13T02:10:38.412Z,4.73
2023-05-13T02:13:05.555Z,4.50
2023-05-13T02:15:32.624Z,4.50
2023-05-13T02:17:59.971Z,4.33
2023-05-13T02:20:27.368Z,4.10
2023-05-13T02:22:54.841Z,4.50
2023-05-13T02:25:22.033Z,4.20
2023-05-13T02:27:49.203Z,3.97
2023-05-13T02:30:16.498Z,4.03
2023-05-13T02:32:45.293Z,3.90
2023-05-13T02:35:12.527Z,4.07
2023-05-13T02:37:39.647Z,4.23
2023-05-13T02:40:08.010Z,3.87
2023-05-13T02:42:35.286Z,4.50
2023-05-13T02:45:02.909Z,4.70
2023-05-13T02:47:32.906Z,4.30
2023-05-13T02:50:06.299Z,4.10
2023-05-13T02:52:36.038Z,4.77
2023-05-13T02:55:03.925Z,4.73
2023-05-13T02:57:31.241Z,4.27
2023-05-13T02:59:59.147Z,5.00
2023-05-13T03:02:28.093Z,4.67
2023-05-13T03:04:56.601Z,4.67
2023-05-13T03:07:24.922Z,4.00
2023-05-13T03:09:52.069Z,4.80
2023-05-13T03:12:19.428Z,4.17
2023-05-13T03:14:48.389Z,4.33
2023-05-13T03:17:15.621Z,4.17
2023-05-13T03:19:42.782Z,3.80
2023-05-13T03:22:10.125Z,4.00
2023-05-13T03:24:37.187Z,4.10
2023-05-13T03:27:04.739Z,3.57
2023-05-13T03:29:32.629Z,3.83
2023-05-13T03:31:59.805Z,3.73
2023-05-13T03:34:27.059Z,4.20
2023-05-13T03:36:54.381Z,4.20
2023-05-13T03:39:21.568Z,4.27
2023-05-13T03:41:48.725Z,3.73
2023-05-13T03:44:15.864Z,3.57
2023-05-13T03:46:43.687Z,3.57
2023-05-13T03:49:11.298Z,3.87
2023-05-13T03:51:38.835Z,4.10
2023-05-13T03:54:06.851Z,4.17
2023-05-13T03:56:33.982Z,4.10
2023-05-13T03:59:01.853Z,3.97
2023-05-13T04:01:30.004Z,4.03
2023-05-13T04:03:57.140Z,4.40
2023-05-13T04:06:24.296Z,4.20
2023-05-13T04:08:52.154Z,4.10
2023-05-13T04:11:19.313Z,5.33
2023-05-13T04:13:47.909Z,4.90
2023-05-13T04:16:17.429Z,4.70
2023-05-13T04:18:44.611Z,4.53
2023-05-13T04:21:11.751Z,4.53
2023-05-13T04:23:38.860Z,4.60
2023-05-13T04:26:06.118Z,4.47
2023-05-13T04:28:33.264Z,4.63
2023-05-13T04:31:02.864Z,4.23
2023-05-13T04:33:31.010Z,4.23
2023-05-13T04:35:58.122Z,4.20
2023-05-13T04:38:25.230Z,4.20
2023-05-13T04:40:52.789Z,4.50
2023-05-13T04:43:30.481Z,3.77
2023-05-13T04:45:59.526Z,4.00
2023-05-13T04:48:28.110Z,4.57
2023-05-13T04:50:58.468Z,4.47
2023-05-13T04:53:26.180Z,4.27
2023-05-13T04:56:00.847Z,4.00
2023-05-13T04:58:29.675Z,4.50
2023-05-13T05:00:57.638Z,4.67
2023-05-13T05:03:25.291Z,4.27
2023-05-13T05:05:53.028Z,4.57
2023-05-13T05:08:21.112Z,4.67
2023-05-13T05:10:50.195Z,4.60
2023-05-13T05:13:17.301Z,5.23
2023-05-13T05:15:44.639Z,6.53
2023-05-13T05:18:13.791Z,6.07
2023-05-13T05:20:42.626Z,6.60
2023-05-13T05:23:20.374Z,7.10
2023-05-13T05:25:51.317Z,6.97
2023-05-13T05:28:26.033Z,6.70
2023-05-13T05:30:53.817Z,6.23
2023-05-13T05:33:25.321Z,6.27
2023-05-13T05:35:53.033Z,6.70
2023-05-13T05:38:25.320Z,5.83
2023-05-13T05:40:53.670Z,7.67
2023-05-13T05:43:20.863Z,7.60
2023-05-13T05:45:48.234Z,7.33
2023-05-13T05:48:18.124Z,6.07
2023-05-13T05:50:45.563Z,5.87
2023-05-13T05:53:16.621Z,5.23
2023-05-13T05:55:44.867Z,5.40
2023-05-13T05:58:15.448Z,5.03
2023-05-13T06:00:43.358Z,5.27
2023-05-13T06:03:10.970Z,6.10
2023-05-13T06:05:39.510Z,6.33
2023-05-13T06:08:06.713Z,6.20
2023-05-13T06:10:34.057Z,6.60
2023-05-13T06:13:01.207Z,5.80
2023-05-13T06:15:29.450Z,6.70
2023-05-13T06:17:57.114Z,6.53
2023-05-13T06:20:24.591Z,5.37
2023-05-13T06:22:51.838Z,5.50
2023-05-13T06:25:19.346Z,5.63
2023-05-13T06:27:46.478Z,5.40
2023-05-13T06:30:13.781Z,5.10
2023-05-13T06:32:53.494Z,5.20
2023-05-13T06:35:27.827Z,5.87
2023-05-13T06:37:55.135Z,4.93
2023-05-13T06:40:22.630Z,5.60
2023-05-13T06:42:50.401Z,5.07
2023-05-13T06:45:23.631Z,4.57
2023-05-13T06:47:51.967Z,4.27
2023-05-13T06:50:20.032Z,4.90
2023-05-13T06:52:47.778Z,4.03
2023-05-13T06:55:16.886Z,4.70
2023-05-13T06:57:46.888Z,4.53
2023-05-13T07:00:17.811Z,4.60
2023-05-13T07:02:45.424Z,5.10
2023-05-13T07:05:13.119Z,4.57
2023-05-13T07:07:40.268Z,4.70
2023-05-13T07:10:07.749Z,4.80
2023-05-13T07:12:35.241Z,4.80
2023-05-13T07:15:02.671Z,4.63
2023-05-13T07:17:31.456Z,4.77
2023-05-13T07:19:59.424Z,4.63
2023-05-13T07:22:26.516Z,4.47
2023-05-13T07:24:53.916Z,4.07
2023-05-13T07:27:21.969Z,4.63
2023-05-13T07:29:49.042Z,3.90
2023-05-13T07:32:16.300Z,5.37
2023-05-13T07:34:43.348Z,4.13
2023-05-13T07:37:10.665Z,4.90
2023-05-13T07:39:37.781Z,4.90
2023-05-13T07:42:05.202Z,4.53
2023-05-13T07:44:32.285Z,5.63
2023-05-13T07:46:59.411Z,4.23
2023-05-13T07:49:26.506Z,4.87
2023-05-13T07:51:53.834Z,4.83
2023-05-13T07:54:20.977Z,4.97
2023-05-13T07:56:48.264Z,4.50
2023-05-13T07:59:15.424Z,4.27
2023-05-13T08:01:43.054Z,4.47
2023-05-13T08:04:10.435Z,4.63
2023-05-13T08:06:37.934Z,4.37
2023-05-13T08:09:04.988Z,4.53
2023-05-13T08:11:32.110Z,4.70
2023-05-13T08:13:59.245Z,4.57
2023-05-13T08:16:26.516Z,4.90
2023-05-13T08:18:53.871Z,4.70
2023-05-13T08:21:21.105Z,5.40
2023-05-13T08:23:50.187Z,5.60
2023-05-13T08:26:17.347Z,5.43
2023-05-13T08:28:44.395Z,5.03
2023-05-13T08:31:12.543Z,5.80
2023-05-13T08:33:41.844Z,5.20
2023-05-13T08:36:10.193Z,4.83
2023-05-13T08:38:37.392Z,5.73
2023-05-13T08:41:06.359Z,5.70
2023-05-13T08:43:34.426Z,5.07
2023-05-13T08:46:04.339Z,5.10
2023-05-13T08:48:32.635Z,4.60
2023-05-13T08:51:02.174Z,4.33
2023-05-13T08:53:31.588Z,4.30
2023-05-13T08:56:00.372Z,4.70
2023-05-13T08:58:28.174Z,4.87
2023-05-13T09:00:56.222Z,4.37
2023-05-13T09:03:23.916Z,4.80
2023-05-13T09:05:51.159Z,4.40
2023-05-13T09:08:18.332Z,3.90
2023-05-13T09:10:45.867Z,3.90
2023-05-13T09:13:14.385Z,3.60
2023-05-13T09:15:43.372Z,4.00
2023-05-13T09:18:11.180Z,4.13
2023-05-13T09:20:38.603Z,3.33
2023-05-13T09:23:11.294Z,4.43
2023-05-13T09:25:39.346Z,4.03
2023-05-13T09:28:08.395Z,3.40
2023-05-13T09:30:38.785Z,3.50
2023-05-13T09:33:20.111Z,3.60
2023-05-13T09:35:53.409Z,3.50
2023-05-13T09:38:29.156Z,3.33
2023-05-13T09:40:58.108Z,3.37
2023-05-13T09:43:27.636Z,3.20
2023-05-13T09:45:55.988Z,3.10
2023-05-13T09:48:26.366Z,3.20
2023-05-13T09:50:55.092Z,2.60
2023-05-13T09:53:22.534Z,3.10
2023-05-13T09:55:52.305Z,3.20
2023-05-13T09:58:20.484Z,3.33
2023-05-13T10:00:48.399Z,3.27
2023-05-13T10:03:16.212Z,3.10
2023-05-13T10:05:43.828Z,2.80
2023-05-13T10:08:12.928Z,3.00
2023-05-13T10:10:41.875Z,2.70
2023-05-13T10:13:11.080Z,2.80
2023-05-13T10:15:49.018Z,3.57
2023-05-13T10:18:17.610Z,2.70
2023-05-13T10:20:45.374Z,2.50
2023-05-13T10:23:13.455Z,2.90
2023-05-13T10:25:41.853Z,2.80
2023-05-13T10:28:10.489Z,2.47
2023-05-13T10:30:38.372Z,2.93
2023-05-13T10:33:05.730Z,2.77
2023-05-13T10:35:38.634Z,2.90
2023-05-13T10:38:53.900Z,2.57
2023-05-13T10:42:00.197Z,3.03
2023-05-13T10:44:27.917Z,2.70
2023-05-13T10:46:56.808Z,2.90
2023-05-13T10:49:26.385Z,2.57
2023-05-13T10:51:53.603Z,2.70
2023-05-13T10:54:22.506Z,2.73
2023-05-13T10:56:59.316Z,2.90
2023-05-13T10:59:30.483Z,2.90
2023-05-13T11:02:01.010Z,2.53
2023-05-13T11:04:28.284Z,2.10
2023-05-13T11:06:55.657Z,2.50
2023-05-13T11:09:31.521Z,2.87
2023-05-13T11:12:00.556Z,2.60
2023-05-13T11:14:30.277Z,2.50
2023-05-13T11:17:23.553Z,2.80
2023-05-13T11:19:51.738Z,2.60
2023-05-13T11:22:24.249Z,2.80
2023-05-13T11:25:10.621Z,2.90
2023-05-13T11:27:42.760Z,3.23
2023-05-13T11:30:30.160Z,3.20
2023-05-13T11:32:58.966Z,3.40
2023-05-13T11:35:28.651Z,2.80
2023-05-13T11:37:59.137Z,3.23
2023-05-13T11:40:35.421Z,3.27
2023-05-13T11:43:02.754Z,2.93
2023-05-13T11:45:30.991Z,3.30
2023-05-13T11:47:59.272Z,3.00
2023-05-13T11:50:30.889Z,2.97
2023-05-13T11:53:00.925Z,3.03
2023-05-13T11:55:32.503Z,3.30
2023-05-13T11:58:00.040Z,3.37
2023-05-13T12:00:32.152Z,2.87
2023-05-13T12:03:00.070Z,3.17
2023-05-13T12:05:27.758Z,3.00
2023-05-13T12:07:59.058Z,2.73
2023-05-13T12:10:26.642Z,2.90
2023-05-13T12:12:54.351Z,2.70
2023-05-13T12:15:22.810Z,2.90
2023-05-13T12:17:50.340Z,2.70
2023-05-13T12:20:21.786Z,3.20
2023-05-13T12:22:53.854Z,2.87
2023-05-13T12:25:54.934Z,2.67
2023-05-13T12:28:26.489Z,3.30
2023-05-13T12:30:59.301Z,2.70
2023-05-13T12:33:32.149Z,3.40
2023-05-13T12:36:27.889Z,2.87
2023-05-13T12:39:06.578Z,2.70
2023-05-13T12:41:41.661Z,2.93
2023-05-13T12:44:15.181Z,2.77
2023-05-13T12:46:53.039Z,2.80
2023-05-13T12:49:20.493Z,2.57
2023-05-13T12:51:47.590Z,2.50
2023-05-13T12:54:14.765Z,2.67
2023-05-13T12:56:41.801Z,2.77
2023-05-13T12:59:09.287Z,3.10
2023-05-13T13:01:37.360Z,2.87
2023-05-13T13:04:04.777Z,3.03
2023-05-13T13:06:32.653Z,3.00
2023-05-13T13:08:59.844Z,3.50
2023-05-13T13:11:26.929Z,3.33
2023-05-13T13:13:54.151Z,3.20
2023-05-13T13:16:22.018Z,3.07
2023-05-13T13:18:51.828Z,3.37
2023-05-13T13:21:20.223Z,2.90
2023-05-13T13:23:47.304Z,3.17
2023-05-13T13:26:14.447Z,2.97
2023-05-13T13:28:41.708Z,3.40
2023-05-13T13:31:08.840Z,3.83
2023-05-13T13:33:35.884Z,3.20
2023-05-13T13:36:03.127Z,3.20
2023-05-13T13:38:30.199Z,3.00
2023-05-13T13:40:57.305Z,3.03
2023-05-13T13:43:24.416Z,3.47
2023-05-13T13:45:51.977Z,4.30
2023-05-13T13:48:19.098Z,4.37
2023-05-13T13:50:47.732Z,3.60
2023-05-13T13:53:15.561Z,3.70
2023-05-13T13:55:42.651Z,3.90
2023-05-13T13:58:09.700Z,3.63
2023-05-13T14:00:36.876Z,4.23
2023-05-13T14:03:04.153Z,4.03
2023-05-13T14:05:31.437Z,3.53
2023-05-13T14:07:58.810Z,4.30
2023-05-13T14:10:25.949Z,3.73
2023-05-13T14:12:53.672Z,4.40
2023-05-13T14:15:20.957Z,3.63
2023-05-13T14:17:48.060Z,3.97
2023-05-13T14:20:15.207Z,4.40
2023-05-13T14:22:42.236Z,4.30
2023-05-13T14:25:09.985Z,4.83
2023-05-13T14:27:37.078Z,4.63
2023-05-13T14:30:05.524Z,4.57
2023-05-13T14:32:33.560Z,4.60
2023-05-13T14:35:00.724Z,4.50
2023-05-13T14:37:27.818Z,4.57
2023-05-13T14:39:56.388Z,4.80
2023-05-13T14:42:23.451Z,4.80
2023-05-13T14:44:50.593Z,5.30
2023-05-13T14:47:17.749Z,4.60
2023-05-13T14:49:44.911Z,4.40
2023-05-13T14:52:12.060Z,4.87
2023-05-13T14:54:39.175Z,4.70
2023-05-13T14:57:07.258Z,5.00
2023-05-13T14:59:34.747Z,4.80
2023-05-13T15:02:02.974Z,4.17
2023-05-13T15:04:30.313Z,4.70
2023-05-13T15:06:57.533Z,4.87
2023-05-13T15:09:24.665Z,5.00
2023-05-13T15:11:51.689Z,4.40
2023-05-13T15:14:18.830Z,4.60
2023-05-13T15:16:45.944Z,4.17
2023-05-13T15:19:13.143Z,4.07
2023-05-13T15:21:40.330Z,4.37
2023-05-13T15:24:07.534Z,4.27
2023-05-13T15:26:34.606Z,4.90
2023-05-13T15:29:01.700Z,4.10
2023-05-13T15:31:31.429Z,4.47
2023-05-13T15:33:59.573Z,4.20
2023-05-13T15:36:26.670Z,4.80
2023-05-13T15:38:53.789Z,4.60
2023-05-13T15:41:20.835Z,4.90
2023-05-13T15:43:47.945Z,5.67
2023-05-13T15:46:15.234Z,4.60
2023-05-13T15:48:42.607Z,4.87
2023-05-13T15:51:09.733Z,5.00
2023-05-13T15:53:36.864Z,4.97
2023-05-13T15:56:03.973Z,4.60
2023-05-13T15:58:31.284Z,5.00
2023-05-13T16:00:58.683Z,4.80
2023-05-13T16:03:25.769Z,5.20
2023-05-13T16:05:53.041Z,5.40
2023-05-13T16:08:21.760Z,5.57
2023-05-13T16:10:48.965Z,5.40
2023-05-13T16:13:16.076Z,5.97
2023-05-13T16:15:43.200Z,5.67
2023-05-13T16:18:10.499Z,4.60
2023-05-13T16:20:37.590Z,4.73
2023-05-13T16:23:04.835Z,4.70
2023-05-13T16:25:32.049Z,5.30
2023-05-13T16:27:59.150Z,5.73
2023-05-13T16:30:26.237Z,5.70
2023-05-13T16:32:54.462Z,5.63
2023-05-13T16:35:22.071Z,6.00
2023-05-13T16:37:50.013Z,5.97
2023-05-13T16:40:17.196Z,5.83
2023-05-13T16:42:44.292Z,7.20
2023-05-13T16:45:11.838Z,6.90
2023-05-13T16:47:39.332Z,7.03
2023-05-13T16:50:08.587Z,6.43
2023-05-13T16:52:36.059Z,7.03
2023-05-13T16:55:03.245Z,7.07
2023-05-13T16:57:30.485Z,6.97
2023-05-13T16:59:57.623Z,6.93
2023-05-13T17:02:24.852Z,9.77
2023-05-13T17:04:51.983Z,7.17
2023-05-13T17:07:19.483Z,7.37
2023-05-13T17:09:46.592Z,7.30
2023-05-13T17:12:13.703Z,7.93
2023-05-13T17:14:40.847Z,8.30
2023-05-13T17:17:08.159Z,7.70
2023-05-13T17:19:35.394Z,7.60
2023-05-13T17:22:03.004Z,7.40
2023-05-13T17:24:30.093Z,6.80
2023-05-13T17:26:57.437Z,7.40
2023-05-13T17:29:25.715Z,7.70
2023-05-13T17:31:53.237Z,7.13
2023-05-13T17:34:20.781Z,6.77
2023-05-13T17:36:50.087Z,8.53
2023-05-13T17:39:17.533Z,7.40
2023-05-13T17:41:44.599Z,8.07
2023-05-13T17:44:11.708Z,7.87
2023-05-13T17:46:39.266Z,8.13
2023-05-13T17:49:06.686Z,8.23
2023-05-13T17:51:33.847Z,7.40
2023-05-13T17:54:00.941Z,7.70
2023-05-13T17:56:28.064Z,7.20
2023-05-13T17:58:55.099Z,7.67
2023-05-13T18:01:22.433Z,7.30
2023-05-13T18:03:49.530Z,7.93
2023-05-13T18:06:16.794Z,7.57
2023-05-13T18:08:43.962Z,8.10
2023-05-13T18:11:11.129Z,8.17
2023-05-13T18:13:38.253Z,7.03
2023-05-13T18:16:06.327Z,7.87
2023-05-13T18:18:33.513Z,7.90
2023-05-13T18:21:02.410Z,8.00
2023-05-13T18:23:29.553Z,7.40
2023-05-13T18:25:56.989Z,7.60
2023-05-13T18:28:24.259Z,7.57
2023-05-13T18:30:51.396Z,7.17
2023-05-13T18:33:20.938Z,7.20
2023-05-13T18:35:48.229Z,6.97
2023-05-13T18:38:15.378Z,7.53
2023-05-13T18:40:42.686Z,7.50
2023-05-13T18:43:09.781Z,7.47
2023-05-13T18:45:37.013Z,7.47
2023-05-13T18:48:04.563Z,7.27
2023-05-13T18:50:31.788Z,8.10
2023-05-13T18:52:58.817Z,7.60
2023-05-13T18:55:26.003Z,6.93
2023-05-13T18:57:53.209Z,7.27
2023-05-13T19:00:20.823Z,7.70
2023-05-13T19:02:48.125Z,6.63
2023-05-13T19:05:15.723Z,7.70
2023-05-13T19:07:42.761Z,6.37
2023-05-13T19:10:10.201Z,6.93
2023-05-13T19:12:37.267Z,7.20
2023-05-13T19:15:05.058Z,7.10
2023-05-13T19:17:32.145Z,7.10
2023-05-13T19:20:00.529Z,7.53
2023-05-13T19:22:27.679Z,7.67
2023-05-13T19:24:55.036Z,7.37
2023-05-13T19:27:22.247Z,7.37
2023-05-13T19:29:49.593Z,7.03
2023-05-13T19:32:16.801Z,7.30
2023-05-13T19:34:43.950Z,6.83
2023-05-13T19:37:11.078Z,6.70
2023-05-13T19:39:38.322Z,7.37
2023-05-13T19:42:05.795Z,7.23
2023-05-13T19:44:34.101Z,6.80
2023-05-13T19:47:01.464Z,6.87
2023-05-13T19:49:28.701Z,7.13
2023-05-13T19:51:55.831Z,7.17
2023-05-13T19:54:23.144Z,7.20
2023-05-13T19:56:50.256Z,5.90
2023-05-13T19:59:17.543Z,6.93
2023-05-13T20:01:44.886Z,6.33
2023-05-13T20:04:12.334Z,6.73
2023-05-13T20:06:39.655Z,6.80
2023-05-13T20:09:06.897Z,6.40
2023-05-13T20:11:34.161Z,6.57
2023-05-13T20:14:01.915Z,6.37
2023-05-13T20:16:29.096Z,5.97
2023-05-13T20:18:56.415Z,5.87
2023-05-13T20:21:23.535Z,6.33
2023-05-13T20:23:50.746Z,6.23
2023-05-13T20:26:17.806Z,6.07
2023-05-13T20:28:47.765Z,5.50
2023-05-13T20:31:15.139Z,5.80
2023-05-13T20:33:42.471Z,6.07
2023-05-13T20:36:09.522Z,6.87
2023-05-13T20:38:36.947Z,5.87
2023-05-13T20:41:04.225Z,6.50
2023-05-13T20:43:34.202Z,5.63
2023-05-13T20:46:02.930Z,5.73
2023-05-13T20:48:32.163Z,5.80
2023-05-13T20:51:02.501Z,5.93
2023-05-13T20:53:29.700Z,6.53
2023-05-13T20:55:56.759Z,6.40
2023-05-13T20:58:23.966Z,7.03
2023-05-13T21:00:51.648Z,6.47
2023-05-13T21:03:19.203Z,7.27
2023-05-13T21:05:46.368Z,7.27
2023-05-13T21:08:13.470Z,7.07
2023-05-13T21:10:40.542Z,7.77
2023-05-13T21:13:07.686Z,6.93
2023-05-13T21:15:35.298Z,6.90
2023-05-13T21:18:02.489Z,7.53
2023-05-13T21:20:29.629Z,6.83
2023-05-13T21:22:56.796Z,6.60
2023-05-13T21:25:23.853Z,6.50
2023-05-13T21:27:50.946Z,6.60
2023-05-13T21:30:18.075Z,6.63
2023-05-13T21:32:45.243Z,6.90
2023-05-13T21:35:13.593Z,6.17
2023-05-13T21:37:40.937Z,6.27
2023-05-13T21:40:08.969Z,5.90
2023-05-13T21:42:36.281Z,6.03
2023-05-13T21:45:04.033Z,5.90
2023-05-13T21:47:31.360Z,6.20
2023-05-13T21:49:58.731Z,6.10
2023-05-13T21:52:25.874Z,6.47
2023-05-13T21:54:52.892Z,6.23
2023-05-13T21:57:19.994Z,6.50
2023-05-13T21:59:47.055Z,6.43
2023-05-13T22:02:14.237Z,5.73
2023-05-13T22:04:41.361Z,6.33
2023-05-13T22:07:08.645Z,5.90
2023-05-13T22:09:35.776Z,5.77
2023-05-13T22:12:02.979Z,5.60
2023-05-13T22:14:30.079Z,5.33
2023-05-13T22:17:08.558Z,5.33
2023-05-13T22:19:37.144Z,5.70
2023-05-13T22:22:04.483Z,5.20
2023-05-13T22:24:31.645Z,4.97
2023-05-13T22:26:59.144Z,5.60
2023-05-13T22:29:26.320Z,5.13
2023-05-13T22:31:53.363Z,5.13
2023-05-13T22:34:20.867Z,5.37
2023-05-13T22:36:47.912Z,5.23
2023-05-13T22:39:16.128Z,5.33
2023-05-13T22:41:43.727Z,5.40
2023-05-13T22:44:11.648Z,5.10
2023-05-13T22:46:39.264Z,5.13
2023-05-13T22:49:07.194Z,4.63
2023-05-13T22:51:34.237Z,4.63
2023-05-13T22:54:01.321Z,4.60
2023-05-13T22:56:28.468Z,4.67
2023-05-13T22:58:55.653Z,4.37
2023-05-13T23:01:22.740Z,4.93
2023-05-13T23:03:49.994Z,5.47
2023-05-13T23:06:17.023Z,4.13
2023-05-13T23:08:44.143Z,4.80
2023-05-13T23:11:11.272Z,4.97
2023-05-13T23:13:38.355Z,5.10
2023-05-13T23:16:06.157Z,5.10
2023-05-13T23:18:34.354Z,4.80
2023-05-13T23:21:02.713Z,5.13
2023-05-13T23:23:29.803Z,4.63
2023-05-13T23:25:56.891Z,5.03
2023-05-13T23:28:24.132Z,5.00
2023-05-13T23:30:54.129Z,5.23
2023-05-13T23:33:21.489Z,5.50
2023-05-13T23:35:54.794Z,5.43
2023-05-13T23:38:22.618Z,5.30
2023-05-13T23:40:49.700Z,5.70
2023-05-13T23:43:16.825Z,5.80
2023-05-13T23:45:44.681Z,5.43
2023-05-13T23:48:12.136Z,4.97
2023-05-13T23:50:40.872Z,5.30
2023-05-13T23:53:07.986Z,5.20
2023-05-13T23:55:35.777Z,5.27
2023-05-13T23:58:02.967Z,5.23
